sensor_id;sensor_type;location;lat;lon;timestamp;pressure;altitude;pressure_sealevel;temperature;humidity
33913;BME280;20200;52.084;5.224;2023-02-04T00:00:00;153534.0;;;18.93;39.04
33913;BME280;20200;52.084;5.224;2023-02-04T00:01:37;153470.0;;;18.68;39.86
33913;BME280;20200;52.084;5.224;2023-02-04T00:03:14;153417.0;;;18.47;40.1
33913;BME280;20200;52.084;5.224;2023-02-04T00:06:27;153432.0;;;18.53;40.11
33913;BME280;20200;52.084;5.224;2023-02-04T00:08:04;153279.0;;;17.93;41.1
33913;BME280;20200;52.084;5.224;2023-02-04T00:09:40;153368.0;;;18.27;40.99
33913;BME280;20200;52.084;5.224;2023-02-04T00:12:52;153513.0;;;18.86;39.76
33913;BME280;20200;52.084;5.224;2023-02-04T00:14:28;153672.0;;;19.48;38.56
33913;BME280;20200;52.084;5.224;2023-02-04T00:16:05;153270.0;;;17.89;41.52
33913;BME280;20200;52.084;5.224;2023-02-04T00:19:17;153465.0;;;18.66;40.37
33913;BME280;20200;52.084;5.224;2023-02-04T00:20:54;153314.0;;;18.06;41.32
33913;BME280;20200;52.084;5.224;2023-02-04T00:22:30;153219.0;;;17.68;42.34
33913;BME280;20200;52.084;5.224;2023-02-04T00:24:06;153319.0;;;18.09;41.45
33913;BME280;20200;52.084;5.224;2023-02-04T00:27:18;153419.0;;;18.48;40.64
33913;BME280;20200;52.084;5.224;2023-02-04T00:28:55;153391.0;;;18.36;40.79
33913;BME280;20200;52.084;5.224;2023-02-04T00:30:31;153561.0;;;19.04;39.87
33913;BME280;20200;52.084;5.224;2023-02-04T00:33:44;153475.0;;;18.7;40.33
33913;BME280;20200;52.084;5.224;2023-02-04T00:35:20;153707.0;;;19.62;38.57
33913;BME280;20200;52.084;5.224;2023-02-04T00:36:57;153536.0;;;18.95;39.61
33913;BME280;20200;52.084;5.224;2023-02-04T00:40:11;153434.0;;;18.53;40.6
33913;BME280;20200;52.084;5.224;2023-02-04T00:41:47;153454.0;;;18.61;40.39
33913;BME280;20200;52.084;5.224;2023-02-04T00:43:23;153545.0;;;18.97;39.39
33913;BME280;20200;52.084;5.224;2023-02-04T00:44:59;153510.0;;;18.84;40.08
33913;BME280;20200;52.084;5.224;2023-02-04T00:48:11;153377.0;;;18.31;41.25
33913;BME280;20200;52.084;5.224;2023-02-04T00:49:47;153470.0;;;18.68;40.6
33913;BME280;20200;52.084;5.224;2023-02-04T00:51:24;153438.0;;;18.55;40.62
33913;BME280;20200;52.084;5.224;2023-02-04T00:54:37;153470.0;;;18.68;40.33
33913;BME280;20200;52.084;5.224;2023-02-04T00:56:13;153611.0;;;19.25;39.33
33913;BME280;20200;52.084;5.224;2023-02-04T00:57:50;153456.0;;;18.62;40.49
33913;BME280;20200;52.084;5.224;2023-02-04T01:01:03;153526.0;;;18.91;40.36
33913;BME280;20200;52.084;5.224;2023-02-04T01:02:40;153531.0;;;18.93;40.17
33913;BME280;20200;52.084;5.224;2023-02-04T01:04:16;153522.0;;;18.88;40.49
33913;BME280;20200;52.084;5.224;2023-02-04T01:05:53;153573.0;;;19.09;39.99
33913;BME280;20200;52.084;5.224;2023-02-04T01:09:06;153556.0;;;19.02;40.1
33913;BME280;20200;52.084;5.224;2023-02-04T01:10:41;153467.0;;;18.68;40.85
33913;BME280;20200;52.084;5.224;2023-02-04T01:12:17;153563.0;;;19.05;40.24
33913;BME280;20200;52.084;5.224;2023-02-04T01:15:30;153478.0;;;18.71;40.81
33913;BME280;20200;52.084;5.224;2023-02-04T01:17:06;153463.0;;;18.66;40.76
33913;BME280;20200;52.084;5.224;2023-02-04T01:18:42;153443.0;;;18.57;40.96
33913;BME280;20200;52.084;5.224;2023-02-04T01:21:55;153428.0;;;18.52;41.61
33913;BME280;20200;52.084;5.224;2023-02-04T01:23:32;153414.0;;;18.46;41.63
33913;BME280;20200;52.084;5.224;2023-02-04T01:25:08;153598.0;;;19.2;40.35
33913;BME280;20200;52.084;5.224;2023-02-04T01:28:20;153439.0;;;18.55;41.29
33913;BME280;20200;52.084;5.224;2023-02-04T01:29:56;153328.0;;;18.11;42.83
33913;BME280;20200;52.084;5.224;2023-02-04T01:31:33;153332.0;;;18.13;42.45
33913;BME280;20200;52.084;5.224;2023-02-04T01:33:10;153422.0;;;18.5;41.76
33913;BME280;20200;52.084;5.224;2023-02-04T01:36:22;153459.0;;;18.63;41.4
33913;BME280;20200;52.084;5.224;2023-02-04T01:37:58;153245.0;;;17.79;43.36
33913;BME280;20200;52.084;5.224;2023-02-04T01:39:35;153393.0;;;18.37;42.37
33913;BME280;20200;52.084;5.224;2023-02-04T01:42:50;153315.0;;;18.06;43.05
33913;BME280;20200;52.084;5.224;2023-02-04T01:44:27;153253.0;;;17.82;43.69
33913;BME280;20200;52.084;5.224;2023-02-04T01:46:04;153386.0;;;18.34;42.67
33913;BME280;20200;52.084;5.224;2023-02-04T01:47:41;153282.0;;;17.93;43.37
33913;BME280;20200;52.084;5.224;2023-02-04T01:51:00;153285.0;;;17.95;43.27
33913;BME280;20200;52.084;5.224;2023-02-04T01:52:41;153291.0;;;17.97;43.26
33913;BME280;20200;52.084;5.224;2023-02-04T01:54:20;153314.0;;;18.06;43.39
33913;BME280;20200;52.084;5.224;2023-02-04T01:57:35;153357.0;;;18.23;43.3
33913;BME280;20200;52.084;5.224;2023-02-04T01:59:13;153327.0;;;18.11;43.4
33913;BME280;20200;52.084;5.224;2023-02-04T02:00:50;153582.0;;;19.12;40.96
33913;BME280;20200;52.084;5.224;2023-02-04T02:02:44;153408.0;;;18.43;42.7
33913;BME280;20200;52.084;5.224;2023-02-04T02:06:08;153111.0;;;17.25;44.68
33913;BME280;20200;52.084;5.224;2023-02-04T02:07:45;153209.0;;;17.64;44.24
33913;BME280;20200;52.084;5.224;2023-02-04T02:09:21;153331.0;;;18.13;43.65
33913;BME280;20200;52.084;5.224;2023-02-04T02:10:58;153270.0;;;17.89;43.83
33913;BME280;20200;52.084;5.224;2023-02-04T02:14:11;153412.0;;;18.45;42.62
33913;BME280;20200;52.084;5.224;2023-02-04T02:15:48;153430.0;;;18.52;42.16
33913;BME280;20200;52.084;5.224;2023-02-04T02:17:24;153513.0;;;18.86;42.01
33913;BME280;20200;52.084;5.224;2023-02-04T02:20:38;153312.0;;;18.05;43.2
33913;BME280;20200;52.084;5.224;2023-02-04T02:22:22;153429.0;;;18.52;42.29
33913;BME280;20200;52.084;5.224;2023-02-04T02:24:23;153396.0;;;18.39;42.68
33913;BME280;20200;52.084;5.224;2023-02-04T02:26:01;153409.0;;;18.43;42.56
33913;BME280;20200;52.084;5.224;2023-02-04T02:27:37;153404.0;;;18.43;42.47
33913;BME280;20200;52.084;5.224;2023-02-04T02:30:50;153518.0;;;18.87;41.8
33913;BME280;20200;52.084;5.224;2023-02-04T02:32:27;153518.0;;;18.87;41.78
33913;BME280;20200;52.084;5.224;2023-02-04T02:34:03;153469.0;;;18.68;42.37
33913;BME280;20200;52.084;5.224;2023-02-04T02:37:21;153386.0;;;18.36;42.88
33913;BME280;20200;52.084;5.224;2023-02-04T02:38:59;153423.0;;;18.5;42.43
33913;BME280;20200;52.084;5.224;2023-02-04T02:40:35;153429.0;;;18.52;42.4
33913;BME280;20200;52.084;5.224;2023-02-04T02:42:14;153473.0;;;18.7;42.05
33913;BME280;20200;52.084;5.224;2023-02-04T02:45:29;153629.0;;;19.31;40.92
33913;BME280;20200;52.084;5.224;2023-02-04T02:47:11;153751.0;;;19.79;39.64
33913;BME280;20200;52.084;5.224;2023-02-04T02:48:49;153742.0;;;19.77;39.79
33913;BME280;20200;52.084;5.224;2023-02-04T02:52:04;153635.0;;;19.34;40.49
33913;BME280;20200;52.084;5.224;2023-02-04T02:53:40;153482.0;;;18.73;41.6
33913;BME280;20200;52.084;5.224;2023-02-04T02:55:18;153592.0;;;19.16;40.87
33913;BME280;20200;52.084;5.224;2023-02-04T02:56:56;153502.0;;;18.8;41.19
33913;BME280;20200;52.084;5.224;2023-02-04T03:00:13;153490.0;;;18.77;41.59
33913;BME280;20200;52.084;5.224;2023-02-04T03:01:54;153468.0;;;18.68;41.97
33913;BME280;20200;52.084;5.224;2023-02-04T03:03:35;153479.0;;;18.72;41.68
33913;BME280;20200;52.084;5.224;2023-02-04T03:05:13;153484.0;;;18.75;41.73
33913;BME280;20200;52.084;5.224;2023-02-04T03:08:26;153570.0;;;19.07;41.25
33913;BME280;20200;52.084;5.224;2023-02-04T03:10:04;153505.0;;;18.82;41.55
33913;BME280;20200;52.084;5.224;2023-02-04T03:11:40;153483.0;;;18.73;41.74
33913;BME280;20200;52.084;5.224;2023-02-04T03:14:54;153587.0;;;19.14;40.72
33913;BME280;20200;52.084;5.224;2023-02-04T03:16:32;153463.0;;;18.66;41.96
33913;BME280;20200;52.084;5.224;2023-02-04T03:18:10;153594.0;;;19.18;40.49
33913;BME280;20200;52.084;5.224;2023-02-04T03:19:48;153595.0;;;19.18;40.79
33913;BME280;20200;52.084;5.224;2023-02-04T03:23:00;153680.0;;;19.52;39.94
33913;BME280;20200;52.084;5.224;2023-02-04T03:24:37;153741.0;;;19.75;39.54
33913;BME280;20200;52.084;5.224;2023-02-04T03:26:14;153696.0;;;19.57;39.87
33913;BME280;20200;52.084;5.224;2023-02-04T03:29:27;153605.0;;;19.21;40.28
33913;BME280;20200;52.084;5.224;2023-02-04T03:31:04;153742.0;;;19.77;39.46
33913;BME280;20200;52.084;5.224;2023-02-04T03:32:40;153653.0;;;19.41;39.86
33913;BME280;20200;52.084;5.224;2023-02-04T03:35:53;153730.0;;;19.71;39.21
33913;BME280;20200;52.084;5.224;2023-02-04T03:37:30;153776.0;;;19.89;38.86
33913;BME280;20200;52.084;5.224;2023-02-04T03:39:06;153598.0;;;19.2;39.93
33913;BME280;20200;52.084;5.224;2023-02-04T03:40:43;153393.0;;;18.37;41.77
33913;BME280;20200;52.084;5.224;2023-02-04T03:43:56;153287.0;;;17.95;42.84
33913;BME280;20200;52.084;5.224;2023-02-04T03:45:33;153430.0;;;18.52;41.41
33913;BME280;20200;52.084;5.224;2023-02-04T03:47:09;153568.0;;;19.07;40.6
33913;BME280;20200;52.084;5.224;2023-02-04T03:50:21;153470.0;;;18.68;41.14
33913;BME280;20200;52.084;5.224;2023-02-04T03:51:57;153525.0;;;18.91;40.6
33913;BME280;20200;52.084;5.224;2023-02-04T03:53:34;153677.0;;;19.5;39.42
33913;BME280;20200;52.084;5.224;2023-02-04T03:56:46;153677.0;;;19.5;39.04
33913;BME280;20200;52.084;5.224;2023-02-04T03:58:22;153563.0;;;19.05;39.78
33913;BME280;20200;52.084;5.224;2023-02-04T03:59:58;153455.0;;;18.62;40.31
33913;BME280;20200;52.084;5.224;2023-02-04T04:01:35;153586.0;;;19.14;39.54
33913;BME280;20200;52.084;5.224;2023-02-04T04:04:47;153647.0;;;19.38;38.92
33913;BME280;20200;52.084;5.224;2023-02-04T04:06:23;153674.0;;;19.5;38.42
33913;BME280;20200;52.084;5.224;2023-02-04T04:08:00;153632.0;;;19.32;38.87
33913;BME280;20200;52.084;5.224;2023-02-04T04:11:12;153647.0;;;19.38;38.76
33913;BME280;20200;52.084;5.224;2023-02-04T04:12:50;153713.0;;;19.64;38.42
33913;BME280;20200;52.084;5.224;2023-02-04T04:14:26;153690.0;;;19.55;38.58
33913;BME280;20200;52.084;5.224;2023-02-04T04:17:39;153681.0;;;19.52;38.61
33913;BME280;20200;52.084;5.224;2023-02-04T04:19:15;153552.0;;;19.02;39.53
33913;BME280;20200;52.084;5.224;2023-02-04T04:20:51;153490.0;;;18.77;39.96
33913;BME280;20200;52.084;5.224;2023-02-04T04:24:04;153497.0;;;18.78;39.83
33913;BME280;20200;52.084;5.224;2023-02-04T04:25:41;153495.0;;;18.78;39.82
33913;BME280;20200;52.084;5.224;2023-02-04T04:27:17;153517.0;;;18.87;39.68
33913;BME280;20200;52.084;5.224;2023-02-04T04:28:53;153590.0;;;19.16;39.15
33913;BME280;20200;52.084;5.224;2023-02-04T04:32:05;153603.0;;;19.21;39.19
33913;BME280;20200;52.084;5.224;2023-02-04T04:33:42;153655.0;;;19.41;38.96
33913;BME280;20200;52.084;5.224;2023-02-04T04:35:18;153636.0;;;19.34;39.06
33913;BME280;20200;52.084;5.224;2023-02-04T04:38:30;153711.0;;;19.63;38.67
33913;BME280;20200;52.084;5.224;2023-02-04T04:40:10;153629.0;;;19.31;38.92
33913;BME280;20200;52.084;5.224;2023-02-04T04:41:47;153700.0;;;19.59;38.64
33913;BME280;20200;52.084;5.224;2023-02-04T04:44:59;153663.0;;;19.45;38.74
33913;BME280;20200;52.084;5.224;2023-02-04T04:46:35;153670.0;;;19.47;38.75
33913;BME280;20200;52.084;5.224;2023-02-04T04:48:11;153700.0;;;19.59;38.81
33913;BME280;20200;52.084;5.224;2023-02-04T04:49:47;153611.0;;;19.25;39.21
33913;BME280;20200;52.084;5.224;2023-02-04T04:53:00;153494.0;;;18.77;39.92
33913;BME280;20200;52.084;5.224;2023-02-04T04:54:36;153430.0;;;18.52;40.28
33913;BME280;20200;52.084;5.224;2023-02-04T04:56:12;153386.0;;;18.36;40.64
33913;BME280;20200;52.084;5.224;2023-02-04T04:59:24;153334.0;;;18.14;41.11
33913;BME280;20200;52.084;5.224;2023-02-04T05:01:01;153462.0;;;18.66;40.21
33913;BME280;20200;52.084;5.224;2023-02-04T05:02:37;153369.0;;;18.28;40.96
33913;BME280;20200;52.084;5.224;2023-02-04T05:05:49;153402.0;;;18.41;40.82
33913;BME280;20200;52.084;5.224;2023-02-04T05:07:25;153512.0;;;18.84;40.14
33913;BME280;20200;52.084;5.224;2023-02-04T05:09:03;153441.0;;;18.56;40.54
33913;BME280;20200;52.084;5.224;2023-02-04T05:10:40;153440.0;;;18.56;40.68
33913;BME280;20200;52.084;5.224;2023-02-04T05:13:53;153423.0;;;18.5;40.85
33913;BME280;20200;52.084;5.224;2023-02-04T05:15:29;153431.0;;;18.52;40.71
33913;BME280;20200;52.084;5.224;2023-02-04T05:17:05;153484.0;;;18.75;40.47
33913;BME280;20200;52.084;5.224;2023-02-04T05:20:19;153543.0;;;18.97;40.03
33913;BME280;20200;52.084;5.224;2023-02-04T05:21:56;153641.0;;;19.36;39.49
33913;BME280;20200;52.084;5.224;2023-02-04T05:23:33;153515.0;;;18.86;40.39
33913;BME280;20200;52.084;5.224;2023-02-04T05:26:46;153597.0;;;19.18;39.72
33913;BME280;20200;52.084;5.224;2023-02-04T05:28:22;153425.0;;;18.5;40.99
33913;BME280;20200;52.084;5.224;2023-02-04T05:29:58;153337.0;;;18.16;41.89
33913;BME280;20200;52.084;5.224;2023-02-04T05:31:35;153399.0;;;18.41;41.45
33913;BME280;20200;52.084;5.224;2023-02-04T05:34:47;153428.0;;;18.52;41.04
33913;BME280;20200;52.084;5.224;2023-02-04T05:36:23;153382.0;;;18.34;41.39
33913;BME280;20200;52.084;5.224;2023-02-04T05:37:59;153425.0;;;18.5;41.15
33913;BME280;20200;52.084;5.224;2023-02-04T05:41:12;153506.0;;;18.82;40.69
33913;BME280;20200;52.084;5.224;2023-02-04T05:42:48;153468.0;;;18.68;40.97
33913;BME280;20200;52.084;5.224;2023-02-04T05:44:24;153412.0;;;18.45;41.49
33913;BME280;20200;52.084;5.224;2023-02-04T05:47:37;153368.0;;;18.27;41.98
33913;BME280;20200;52.084;5.224;2023-02-04T05:49:14;153300.0;;;18.0;42.49
33913;BME280;20200;52.084;5.224;2023-02-04T05:50:51;153269.0;;;17.88;42.95
33913;BME280;20200;52.084;5.224;2023-02-04T05:54:03;153187.0;;;17.56;43.19
33913;BME280;20200;52.084;5.224;2023-02-04T05:55:39;153133.0;;;17.34;43.81
33913;BME280;20200;52.084;5.224;2023-02-04T05:57:15;153254.0;;;17.82;43.13
33913;BME280;20200;52.084;5.224;2023-02-04T05:58:52;153507.0;;;18.82;41.14
33913;BME280;20200;52.084;5.224;2023-02-04T06:02:04;153382.0;;;18.34;41.98
33913;BME280;20200;52.084;5.224;2023-02-04T06:03:40;153457.0;;;18.63;41.39
33913;BME280;20200;52.084;5.224;2023-02-04T06:05:19;153492.0;;;18.77;41.02
33913;BME280;20200;52.084;5.224;2023-02-04T06:08:31;153480.0;;;18.72;41.29
33913;BME280;20200;52.084;5.224;2023-02-04T06:10:08;153424.0;;;18.5;41.23
33913;BME280;20200;52.084;5.224;2023-02-04T06:11:45;153499.0;;;18.79;41.03
33913;BME280;20200;52.084;5.224;2023-02-04T06:14:57;153457.0;;;18.63;41.14
33913;BME280;20200;52.084;5.224;2023-02-04T06:16:34;153463.0;;;18.66;41.05
33913;BME280;20200;52.084;5.224;2023-02-04T06:18:10;153400.0;;;18.41;41.5
33913;BME280;20200;52.084;5.224;2023-02-04T06:19:46;153497.0;;;18.79;40.93
33913;BME280;20200;52.084;5.224;2023-02-04T06:22:58;153550.0;;;19.0;40.31
33913;BME280;20200;52.084;5.224;2023-02-04T06:24:35;153533.0;;;18.93;40.49
33913;BME280;20200;52.084;5.224;2023-02-04T06:26:12;153504.0;;;18.81;40.53
33913;BME280;20200;52.084;5.224;2023-02-04T06:29:25;153488.0;;;18.75;40.72
33913;BME280;20200;52.084;5.224;2023-02-04T06:31:02;153406.0;;;18.43;41.27
33913;BME280;20200;52.084;5.224;2023-02-04T06:32:39;153325.0;;;18.11;41.99
33913;BME280;20200;52.084;5.224;2023-02-04T06:35:52;153358.0;;;18.23;41.8
33913;BME280;20200;52.084;5.224;2023-02-04T06:39:05;153417.0;;;18.47;41.47
33913;BME280;20200;52.084;5.224;2023-02-04T06:40:42;153423.0;;;18.5;41.4
33913;BME280;20200;52.084;5.224;2023-02-04T06:43:54;153370.0;;;18.28;41.85
33913;BME280;20200;52.084;5.224;2023-02-04T06:45:30;153310.0;;;18.04;42.29
33913;BME280;20200;52.084;5.224;2023-02-04T06:47:06;153282.0;;;17.93;42.62
33913;BME280;20200;52.084;5.224;2023-02-04T06:50:19;153336.0;;;18.16;42.17
33913;BME280;20200;52.084;5.224;2023-02-04T06:51:54;153343.0;;;18.18;42.03
33913;BME280;20200;52.084;5.224;2023-02-04T06:53:30;153398.0;;;18.39;41.66
33913;BME280;20200;52.084;5.224;2023-02-04T06:56:42;153367.0;;;18.27;41.88
33913;BME280;20200;52.084;5.224;2023-02-04T06:58:18;153354.0;;;18.22;41.95
33913;BME280;20200;52.084;5.224;2023-02-04T06:59:54;153330.0;;;18.12;42.11
33913;BME280;20200;52.084;5.224;2023-02-04T07:03:06;153412.0;;;18.45;41.56
33913;BME280;20200;52.084;5.224;2023-02-04T07:04:43;153377.0;;;18.31;41.81
33913;BME280;20200;52.084;5.224;2023-02-04T07:06:18;153357.0;;;18.23;41.94
33913;BME280;20200;52.084;5.224;2023-02-04T07:07:55;153260.0;;;17.84;42.8
33913;BME280;20200;52.084;5.224;2023-02-04T07:11:06;153347.0;;;18.2;42.19
33913;BME280;20200;52.084;5.224;2023-02-04T07:12:42;153346.0;;;18.2;42.27
33913;BME280;20200;52.084;5.224;2023-02-04T07:14:18;153325.0;;;18.11;42.38
33913;BME280;20200;52.084;5.224;2023-02-04T07:17:31;153315.0;;;18.06;42.51
33913;BME280;20200;52.084;5.224;2023-02-04T07:19:07;153393.0;;;18.37;41.86
33913;BME280;20200;52.084;5.224;2023-02-04T07:20:43;153380.0;;;18.32;42.05
33913;BME280;20200;52.084;5.224;2023-02-04T07:23:55;153333.0;;;18.13;42.42
33913;BME280;20200;52.084;5.224;2023-02-04T07:25:31;153270.0;;;17.88;42.85
33913;BME280;20200;52.084;5.224;2023-02-04T07:27:08;153288.0;;;17.96;42.63
33913;BME280;20200;52.084;5.224;2023-02-04T07:28:44;153339.0;;;18.16;42.53
33913;BME280;20200;52.084;5.224;2023-02-04T07:31:56;153337.0;;;18.16;42.46
33913;BME280;20200;52.084;5.224;2023-02-04T07:33:31;153311.0;;;18.05;42.59
33913;BME280;20200;52.084;5.224;2023-02-04T07:35:08;153337.0;;;18.16;42.53
33913;BME280;20200;52.084;5.224;2023-02-04T07:38:22;153346.0;;;18.2;42.57
33913;BME280;20200;52.084;5.224;2023-02-04T07:39:58;153391.0;;;18.37;42.28
33913;BME280;20200;52.084;5.224;2023-02-04T07:41:34;153323.0;;;18.09;42.69
33913;BME280;20200;52.084;5.224;2023-02-04T07:44:46;153317.0;;;18.07;42.89
33913;BME280;20200;52.084;5.224;2023-02-04T07:46:22;153351.0;;;18.21;42.58
33913;BME280;20200;52.084;5.224;2023-02-04T07:47:58;153321.0;;;18.09;42.76
33913;BME280;20200;52.084;5.224;2023-02-04T07:51:09;153378.0;;;18.31;42.32
33913;BME280;20200;52.084;5.224;2023-02-04T07:52:45;153302.0;;;18.02;42.98
33913;BME280;20200;52.084;5.224;2023-02-04T07:54:21;153278.0;;;17.93;43.32
33913;BME280;20200;52.084;5.224;2023-02-04T07:55:56;153368.0;;;18.27;42.75
33913;BME280;20200;52.084;5.224;2023-02-04T07:59:09;153316.0;;;18.07;43.12
33913;BME280;20200;52.084;5.224;2023-02-04T08:00:45;153296.0;;;18.0;43.3
33913;BME280;20200;52.084;5.224;2023-02-04T08:02:21;153336.0;;;18.14;43.13
33913;BME280;20200;52.084;5.224;2023-02-04T08:05:34;153334.0;;;18.14;43.18
33913;BME280;20200;52.084;5.224;2023-02-04T08:07:10;153268.0;;;17.88;43.82
33913;BME280;20200;52.084;5.224;2023-02-04T08:08:46;153343.0;;;18.18;43.26
33913;BME280;20200;52.084;5.224;2023-02-04T08:11:59;153382.0;;;18.34;43.04
33913;BME280;20200;52.084;5.224;2023-02-04T08:13:35;153445.0;;;18.59;42.71
33913;BME280;20200;52.084;5.224;2023-02-04T08:15:12;153349.0;;;18.2;43.37
33913;BME280;20200;52.084;5.224;2023-02-04T08:18:24;153264.0;;;17.86;44.03
33913;BME280;20200;52.084;5.224;2023-02-04T08:20:00;153269.0;;;17.88;44.16
33913;BME280;20200;52.084;5.224;2023-02-04T08:21:36;153316.0;;;18.07;44.03
33913;BME280;20200;52.084;5.224;2023-02-04T08:23:12;153298.0;;;18.0;43.98
33913;BME280;20200;52.084;5.224;2023-02-04T08:26:24;153330.0;;;18.12;43.87
33913;BME280;20200;52.084;5.224;2023-02-04T08:28:01;153426.0;;;18.52;43.12
33913;BME280;20200;52.084;5.224;2023-02-04T08:29:38;153345.0;;;18.18;43.82
33913;BME280;20200;52.084;5.224;2023-02-04T08:32:50;153339.0;;;18.16;43.91
33913;BME280;20200;52.084;5.224;2023-02-04T08:34:26;153347.0;;;18.2;43.87
33913;BME280;20200;52.084;5.224;2023-02-04T08:36:03;153452.0;;;18.61;42.99
33913;BME280;20200;52.084;5.224;2023-02-04T08:39:15;153446.0;;;18.59;43.19
33913;BME280;20200;52.084;5.224;2023-02-04T08:40:52;153456.0;;;18.62;43.07
33913;BME280;20200;52.084;5.224;2023-02-04T08:42:28;153412.0;;;18.45;43.51
33913;BME280;20200;52.084;5.224;2023-02-04T08:44:05;153442.0;;;18.57;43.43
33913;BME280;20200;52.084;5.224;2023-02-04T08:47:17;153475.0;;;18.7;43.18
33913;BME280;20200;52.084;5.224;2023-02-04T08:48:53;153515.0;;;18.86;42.99
33913;BME280;20200;52.084;5.224;2023-02-04T08:50:31;153478.0;;;18.71;43.18
33913;BME280;20200;52.084;5.224;2023-02-04T08:53:44;153554.0;;;19.02;42.83
33913;BME280;20200;52.084;5.224;2023-02-04T08:55:20;153527.0;;;18.91;42.98
33913;BME280;20200;52.084;5.224;2023-02-04T08:56:56;153576.0;;;19.11;42.57
33913;BME280;20200;52.084;5.224;2023-02-04T09:00:10;153566.0;;;19.06;42.77
33913;BME280;20200;52.084;5.224;2023-02-04T09:01:48;153665.0;;;19.45;42.0
33913;BME280;20200;52.084;5.224;2023-02-04T09:03:25;153694.0;;;19.56;41.87
33913;BME280;20200;52.084;5.224;2023-02-04T09:05:01;153721.0;;;19.68;41.65
33913;BME280;20200;52.084;5.224;2023-02-04T09:08:14;153803.0;;;20.0;40.94
33913;BME280;20200;52.084;5.224;2023-02-04T09:09:50;153816.0;;;20.05;40.94
33913;BME280;20200;52.084;5.224;2023-02-04T09:11:26;153850.0;;;20.2;40.6
33913;BME280;20200;52.084;5.224;2023-02-04T09:14:39;153834.0;;;20.12;40.65
33913;BME280;20200;52.084;5.224;2023-02-04T09:16:17;153800.0;;;20.0;40.31
33913;BME280;20200;52.084;5.224;2023-02-04T09:18:00;153902.0;;;20.39;40.25
33913;BME280;20200;52.084;5.224;2023-02-04T09:19:36;153909.0;;;20.43;40.03
33913;BME280;20200;52.084;5.224;2023-02-04T09:22:49;153904.0;;;20.41;40.08
33913;BME280;20200;52.084;5.224;2023-02-04T09:24:25;153941.0;;;20.54;39.64
33913;BME280;20200;52.084;5.224;2023-02-04T09:26:03;153901.0;;;20.39;39.96
33913;BME280;20200;52.084;5.224;2023-02-04T09:29:16;153869.0;;;20.27;40.18
33913;BME280;20200;52.084;5.224;2023-02-04T09:30:53;153927.0;;;20.49;39.79
33913;BME280;20200;52.084;5.224;2023-02-04T09:32:28;153895.0;;;20.36;39.74
33913;BME280;20200;52.084;5.224;2023-02-04T09:35:41;153848.0;;;20.18;40.06
33913;BME280;20200;52.084;5.224;2023-02-04T09:37:17;153861.0;;;20.23;39.71
33913;BME280;20200;52.084;5.224;2023-02-04T09:38:53;153861.0;;;20.23;39.61
33913;BME280;20200;52.084;5.224;2023-02-04T09:40:32;153900.0;;;20.38;39.33
33913;BME280;20200;52.084;5.224;2023-02-04T09:43:50;153780.0;;;19.91;40.53
33913;BME280;20200;52.084;5.224;2023-02-04T09:45:28;153930.0;;;20.5;39.31
33913;BME280;20200;52.084;5.224;2023-02-04T09:47:09;153939.0;;;20.54;39.39
33913;BME280;20200;52.084;5.224;2023-02-04T09:50:27;153995.0;;;20.76;39.01
33913;BME280;20200;52.084;5.224;2023-02-04T09:52:03;153967.0;;;20.65;39.07
33913;BME280;20200;52.084;5.224;2023-02-04T09:53:45;153894.0;;;20.36;39.74
33913;BME280;20200;52.084;5.224;2023-02-04T09:55:27;153955.0;;;20.6;39.17
33913;BME280;20200;52.084;5.224;2023-02-04T09:58:51;153926.0;;;20.49;39.56
33913;BME280;20200;52.084;5.224;2023-02-04T10:00:29;153830.0;;;20.11;40.64
33913;BME280;20200;52.084;5.224;2023-02-04T10:02:16;153861.0;;;20.23;40.42
33913;BME280;20200;52.084;5.224;2023-02-04T10:04:00;153918.0;;;20.46;40.06
33913;BME280;20200;52.084;5.224;2023-02-04T10:05:37;153996.0;;;20.76;39.39
33913;BME280;20200;52.084;5.224;2023-02-04T10:08:54;153996.0;;;20.76;38.11
33913;BME280;20200;52.084;5.224;2023-02-04T10:10:32;154053.0;;;20.99;37.9
33913;BME280;20200;52.084;5.224;2023-02-04T10:12:08;154044.0;;;20.95;37.85
33913;BME280;20200;52.084;5.224;2023-02-04T10:15:24;154120.0;;;21.25;37.32
33913;BME280;20200;52.084;5.224;2023-02-04T10:17:00;154066.0;;;21.04;37.28
33913;BME280;20200;52.084;5.224;2023-02-04T10:18:38;153825.0;;;20.09;38.67
33913;BME280;20200;52.084;5.224;2023-02-04T10:20:16;153960.0;;;20.62;37.57
33913;BME280;20200;52.084;5.224;2023-02-04T10:23:31;153904.0;;;20.41;37.67
33913;BME280;20200;52.084;5.224;2023-02-04T10:25:11;153962.0;;;20.63;37.81
33913;BME280;20200;52.084;5.224;2023-02-04T10:26:48;153979.0;;;20.7;37.46
33913;BME280;20200;52.084;5.224;2023-02-04T10:30:17;153947.0;;;20.57;37.75
33913;BME280;20200;52.084;5.224;2023-02-04T10:31:55;154013.0;;;20.83;37.74
33913;BME280;20200;52.084;5.224;2023-02-04T10:33:32;154012.0;;;20.82;37.6
33913;BME280;20200;52.084;5.224;2023-02-04T10:35:13;154089.0;;;21.13;36.46
33913;BME280;20200;52.084;5.224;2023-02-04T10:38:29;154048.0;;;20.97;36.92
33913;BME280;20200;52.084;5.224;2023-02-04T10:40:24;154017.0;;;20.85;37.28
33913;BME280;20200;52.084;5.224;2023-02-04T10:42:02;154104.0;;;21.19;36.43
33913;BME280;20200;52.084;5.224;2023-02-04T10:43:38;154139.0;;;21.33;35.79
33913;BME280;20200;52.084;5.224;2023-02-04T10:46:59;154098.0;;;21.17;36.46
33913;BME280;20200;52.084;5.224;2023-02-04T10:48:39;154021.0;;;20.86;36.43
33913;BME280;20200;52.084;5.224;2023-02-04T10:50:17;153991.0;;;20.74;37.18
33913;BME280;20200;52.084;5.224;2023-02-04T10:51:55;154042.0;;;20.94;36.17
33913;BME280;20200;52.084;5.224;2023-02-04T10:56:17;154099.0;;;21.17;35.39
33913;BME280;20200;52.084;5.224;2023-02-04T10:57:55;154046.0;;;20.96;35.71
33913;BME280;20200;52.084;5.224;2023-02-04T11:01:10;154067.0;;;21.05;35.69
33913;BME280;20200;52.084;5.224;2023-02-04T11:02:51;153927.0;;;20.49;36.35
33913;BME280;20200;52.084;5.224;2023-02-04T11:04:31;153926.0;;;20.49;36.1
33913;BME280;20200;52.084;5.224;2023-02-04T11:07:49;154044.0;;;20.95;35.03
33913;BME280;20200;52.084;5.224;2023-02-04T11:09:26;154021.0;;;20.86;35.5